Time;durP1;ratioP1;P1;durP2;ratioP2;P2;SDS_P1;SDS_P2;PMS_P1;PMS_P2;Temp;Humidity;BMP_temperature;BMP_pressure;BME280_temperature;BME280_humidity;BME280_pressure;Samples;Min_cycle;Max_cycle;Signal;HPM_P1;HPM_P2
2023/10/26 00:00:50;;;;;;;8.80;6.90;;;;;;;;;;5075250;28;20560;-86
2023/10/26 00:03:16;;;;;;;12.73;7.40;;;;;;;;;;5074983;28;20502;-85
2023/10/26 00:05:42;;;;;;;9.43;7.20;;;;;;;;;;5075102;28;20818;-85
2023/10/26 00:08:08;;;;;;;10.43;7.40;;;;;;;;;;5074186;28;20516;-86
2023/10/26 00:10:34;;;;;;;12.17;6.67;;;;;;;;;;5075326;28;20501;-85
2023/10/26 00:12:59;;;;;;;8.53;6.73;;;;;;;;;;5073867;28;20244;-87
2023/10/26 00:15:26;;;;;;;10.70;7.50;;;;;;;;;;5075976;28;20439;-85
2023/10/26 00:17:52;;;;;;;10.53;6.67;;;;;;;;;;5074116;28;20410;-85
2023/10/26 00:20:18;;;;;;;9.60;6.90;;;;;;;;;;5074206;28;21029;-85
2023/10/26 00:22:44;;;;;;;9.60;6.20;;;;;;;;;;5074154;28;20974;-86
2023/10/26 00:25:10;;;;;;;9.27;7.27;;;;;;;;;;5075606;28;20424;-83
2023/10/26 00:27:40;;;;;;;11.83;7.83;;;;;;;;;;5074920;28;20864;-86
2023/10/26 00:30:06;;;;;;;9.37;7.57;;;;;;;;;;5075569;28;20421;-86
2023/10/26 00:32:32;;;;;;;8.80;7.00;;;;;;;;;;5074746;28;20453;-87
2023/10/26 00:34:58;;;;;;;10.00;7.10;;;;;;;;;;5073972;28;20769;-86
2023/10/26 00:37:24;;;;;;;8.90;6.53;;;;;;;;;;5073093;28;20430;-86
2023/10/26 00:39:50;;;;;;;14.57;8.27;;;;;;;;;;5073474;28;20499;-86
2023/10/26 00:42:16;;;;;;;9.27;7.10;;;;;;;;;;5074893;28;20179;-85
2023/10/26 00:44:46;;;;;;;11.73;7.93;;;;;;;;;;5074082;28;20514;-83
2023/10/26 00:47:12;;;;;;;10.60;7.57;;;;;;;;;;5073177;28;20930;-87
2023/10/26 00:49:40;;;;;;;12.20;7.80;;;;;;;;;;5074947;28;20411;-85
2023/10/26 00:52:06;;;;;;;14.20;8.17;;;;;;;;;;5075001;28;20899;-87
2023/10/26 00:54:33;;;;;;;10.20;7.37;;;;;;;;;;5074357;28;20810;-89
2023/10/26 00:56:59;;;;;;;13.73;7.93;;;;;;;;;;5073733;28;20427;-84
2023/10/26 00:59:27;;;;;;;10.97;8.20;;;;;;;;;;5073782;28;20472;-84
2023/10/26 01:01:55;;;;;;;10.80;7.43;;;;;;;;;;5072912;28;20438;-90
2023/10/26 01:04:21;;;;;;;10.63;8.10;;;;;;;;;;5074577;28;20421;-91
2023/10/26 01:06:47;;;;;;;9.20;7.20;;;;;;;;;;5074554;28;20517;-85
2023/10/26 01:09:14;;;;;;;11.60;8.67;;;;;;;;;;5074299;28;20452;-87
2023/10/26 01:11:40;;;;;;;11.03;7.87;;;;;;;;;;5074255;28;20464;-83
2023/10/26 01:14:07;;;;;;;11.97;7.93;;;;;;;;;;5074562;28;20435;-84
2023/10/26 01:16:33;;;;;;;13.10;8.73;;;;;;;;;;5073176;28;20475;-91
2023/10/26 01:18:59;;;;;;;10.47;8.30;;;;;;;;;;5074069;28;20409;-85
2023/10/26 01:21:25;;;;;;;12.93;8.50;;;;;;;;;;5074244;28;20870;-83
2023/10/26 01:23:51;;;;;;;10.80;7.40;;;;;;;;;;5074493;28;20439;-90
2023/10/26 01:26:17;;;;;;;12.70;8.80;;;;;;;;;;5072836;28;20471;-83
2023/10/26 01:28:43;;;;;;;10.53;7.40;;;;;;;;;;5073883;28;20893;-84
2023/10/26 01:31:09;;;;;;;11.67;9.30;;;;;;;;;;5074160;28;20418;-88
2023/10/26 01:33:35;;;;;;;14.53;8.13;;;;;;;;;;5073886;28;20417;-91
2023/10/26 01:36:01;;;;;;;11.63;8.53;;;;;;;;;;5073948;28;20169;-91
2023/10/26 01:38:27;;;;;;;13.70;9.00;;;;;;;;;;5074036;28;20408;-87
2023/10/26 01:40:53;;;;;;;12.00;7.57;;;;;;;;;;5073527;28;21104;-84
2023/10/26 01:43:19;;;;;;;12.70;9.53;;;;;;;;;;5073818;28;20195;-89
2023/10/26 01:45:45;;;;;;;13.53;8.47;;;;;;;;;;5073829;28;20961;-83
2023/10/26 01:48:11;;;;;;;13.67;8.90;;;;;;;;;;5073296;28;20418;-85
2023/10/26 01:50:37;;;;;;;15.37;9.87;;;;;;;;;;5074201;28;20483;-84
2023/10/26 01:53:03;;;;;;;12.83;10.17;;;;;;;;;;5074227;28;20408;-93
2023/10/26 01:55:29;;;;;;;13.73;9.77;;;;;;;;;;5073945;28;20470;-85
2023/10/26 01:57:55;;;;;;;14.67;10.57;;;;;;;;;;5073122;28;20958;-87
2023/10/26 02:00:21;;;;;;;15.50;10.60;;;;;;;;;;5073565;28;20821;-85
2023/10/26 02:02:49;;;;;;;19.37;10.67;;;;;;;;;;5073409;28;20437;-92
2023/10/26 02:05:14;;;;;;;13.13;10.17;;;;;;;;;;5073558;28;20440;-85
2023/10/26 02:07:40;;;;;;;12.80;9.67;;;;;;;;;;5073533;28;20409;-84
2023/10/26 02:10:07;;;;;;;14.53;11.13;;;;;;;;;;5071892;28;20493;-84
2023/10/26 02:12:33;;;;;;;15.20;10.90;;;;;;;;;;5073179;28;20448;-86
2023/10/26 02:14:59;;;;;;;14.00;10.13;;;;;;;;;;5073045;28;20472;-86
2023/10/26 02:17:25;;;;;;;13.50;10.10;;;;;;;;;;5072829;28;20421;-83
2023/10/26 02:19:51;;;;;;;16.03;11.50;;;;;;;;;;5073014;28;20202;-86
2023/10/26 02:22:17;;;;;;;14.27;9.87;;;;;;;;;;5073175;28;20416;-89
2023/10/26 02:24:43;;;;;;;10.70;9.40;;;;;;;;;;5071970;28;20425;-88
2023/10/26 02:27:09;;;;;;;13.37;10.03;;;;;;;;;;5073264;28;20417;-85
2023/10/26 02:29:35;;;;;;;13.83;10.40;;;;;;;;;;5073297;28;20507;-86
2023/10/26 02:32:02;;;;;;;15.80;10.20;;;;;;;;;;5073280;28;20451;-89
2023/10/26 02:34:28;;;;;;;13.97;9.80;;;;;;;;;;5075869;28;20915;-85
2023/10/26 02:36:54;;;;;;;13.83;9.40;;;;;;;;;;5073172;28;20474;-86
2023/10/26 02:39:20;;;;;;;14.27;9.87;;;;;;;;;;5072741;28;20765;-85
2023/10/26 02:41:45;;;;;;;17.37;10.00;;;;;;;;;;5072483;28;20444;-86
2023/10/26 02:44:11;;;;;;;13.47;10.80;;;;;;;;;;5072896;28;20178;-87
2023/10/26 02:46:37;;;;;;;17.30;10.87;;;;;;;;;;5072641;28;20921;-85
2023/10/26 02:49:03;;;;;;;13.70;10.10;;;;;;;;;;5072709;28;20422;-87
2023/10/26 02:51:29;;;;;;;14.27;10.23;;;;;;;;;;5088507;28;20441;-86
2023/10/26 02:53:55;;;;;;;11.70;9.30;;;;;;;;;;5073428;28;20180;-85
2023/10/26 02:56:21;;;;;;;13.10;10.60;;;;;;;;;;5073483;28;20421;-90
2023/10/26 02:58:47;;;;;;;16.57;11.77;;;;;;;;;;5073050;28;20414;-85
2023/10/26 03:01:13;;;;;;;15.73;11.17;;;;;;;;;;5072698;28;20968;-90
2023/10/26 03:03:39;;;;;;;13.87;11.10;;;;;;;;;;5088337;28;20769;-86
2023/10/26 03:06:05;;;;;;;15.33;11.10;;;;;;;;;;5088901;28;20447;-89
2023/10/26 03:08:31;;;;;;;16.33;11.40;;;;;;;;;;5075567;28;20400;-91
2023/10/26 03:10:57;;;;;;;17.33;12.07;;;;;;;;;;5076887;28;20767;-89
2023/10/26 03:13:23;;;;;;;18.23;12.00;;;;;;;;;;5076980;28;20526;-85
2023/10/26 03:15:49;;;;;;;15.40;10.87;;;;;;;;;;5077104;28;20498;-90
2023/10/26 03:18:15;;;;;;;17.23;11.17;;;;;;;;;;5076994;28;20482;-91
2023/10/26 03:20:41;;;;;;;16.53;11.90;;;;;;;;;;5077153;28;20561;-91
2023/10/26 03:23:06;;;;;;;15.87;10.43;;;;;;;;;;5092909;28;20181;-91
2023/10/26 03:25:32;;;;;;;16.43;12.43;;;;;;;;;;5092011;28;21157;-87
2023/10/26 03:27:59;;;;;;;16.63;12.10;;;;;;;;;;5076875;28;20460;-88
2023/10/26 03:30:25;;;;;;;15.17;12.10;;;;;;;;;;5070281;28;20652;-84
2023/10/26 03:32:51;;;;;;;17.27;13.40;;;;;;;;;;5064243;28;20412;-90
2023/10/26 03:35:17;;;;;;;19.50;13.33;;;;;;;;;;5065511;28;20433;-84
2023/10/26 03:37:43;;;;;;;14.37;11.73;;;;;;;;;;5066411;28;20401;-84
2023/10/26 03:40:10;;;;;;;15.70;11.67;;;;;;;;;;5065587;28;20469;-85
2023/10/26 03:42:36;;;;;;;16.80;13.47;;;;;;;;;;5067354;28;20497;-84
2023/10/26 03:45:02;;;;;;;14.70;11.13;;;;;;;;;;5067047;28;20847;-89
2023/10/26 03:47:28;;;;;;;15.70;13.20;;;;;;;;;;5065815;28;20420;-84
2023/10/26 03:49:54;;;;;;;16.03;11.60;;;;;;;;;;5064614;28;20435;-83
2023/10/26 03:52:20;;;;;;;16.80;12.17;;;;;;;;;;5064950;28;20896;-83
2023/10/26 03:54:46;;;;;;;14.57;11.13;;;;;;;;;;5064834;28;20881;-83
2023/10/26 03:57:12;;;;;;;15.53;12.60;;;;;;;;;;5064639;28;20408;-82
2023/10/26 03:59:38;;;;;;;17.03;12.90;;;;;;;;;;5065959;28;20851;-83
2023/10/26 04:02:04;;;;;;;17.30;11.67;;;;;;;;;;5063937;28;20414;-84
2023/10/26 04:04:30;;;;;;;16.37;12.60;;;;;;;;;;5064828;28;20404;-80
2023/10/26 04:06:56;;;;;;;15.83;13.00;;;;;;;;;;5066030;28;20995;-81
2023/10/26 04:09:23;;;;;;;16.90;12.17;;;;;;;;;;5065932;28;20420;-81
2023/10/26 04:11:49;;;;;;;17.03;13.50;;;;;;;;;;5064890;28;20421;-81
2023/10/26 04:14:15;;;;;;;18.27;13.47;;;;;;;;;;5064117;28;20495;-85
2023/10/26 04:16:41;;;;;;;17.53;11.50;;;;;;;;;;5065375;28;20446;-81
2023/10/26 04:19:06;;;;;;;15.13;12.13;;;;;;;;;;5063544;28;20436;-81
2023/10/26 04:21:33;;;;;;;15.20;10.70;;;;;;;;;;5072100;28;20465;-80
2023/10/26 04:23:59;;;;;;;16.67;12.53;;;;;;;;;;5075102;28;20408;-80
2023/10/26 04:26:26;;;;;;;17.50;12.80;;;;;;;;;;5075133;28;20853;-81
2023/10/26 04:28:52;;;;;;;18.00;13.37;;;;;;;;;;5074784;28;20486;-80
2023/10/26 04:31:18;;;;;;;15.20;11.73;;;;;;;;;;5074658;28;20811;-80
2023/10/26 04:33:44;;;;;;;15.90;12.50;;;;;;;;;;5075066;28;20441;-83
2023/10/26 04:36:11;;;;;;;18.13;13.83;;;;;;;;;;5073527;28;20521;-83
2023/10/26 04:38:36;;;;;;;14.40;12.70;;;;;;;;;;5074721;28;20427;-83
2023/10/26 04:41:11;;;;;;;17.93;12.73;;;;;;;;;;5073474;28;20482;-82
2023/10/26 04:43:37;;;;;;;20.07;13.77;;;;;;;;;;5074813;28;20415;-82
2023/10/26 04:46:03;;;;;;;20.23;13.30;;;;;;;;;;5074719;28;20426;-87
2023/10/26 04:48:29;;;;;;;17.23;13.30;;;;;;;;;;5074266;28;20418;-83
2023/10/26 04:50:56;;;;;;;16.50;12.67;;;;;;;;;;5074597;28;20421;-85
2023/10/26 04:53:22;;;;;;;18.03;13.93;;;;;;;;;;5074516;28;20408;-84
2023/10/26 04:55:47;;;;;;;23.30;15.27;;;;;;;;;;5073192;28;20837;-83
2023/10/26 04:58:14;;;;;;;18.80;13.87;;;;;;;;;;5073086;28;20412;-83
2023/10/26 05:00:40;;;;;;;18.97;14.10;;;;;;;;;;5074357;28;20468;-84
2023/10/26 05:03:06;;;;;;;21.43;15.80;;;;;;;;;;5072660;28;20424;-83
2023/10/26 05:05:34;;;;;;;21.47;15.77;;;;;;;;;;5074244;28;20422;-83
2023/10/26 05:08:00;;;;;;;21.13;16.27;;;;;;;;;;5074188;28;20287;-83
2023/10/26 05:10:27;;;;;;;18.40;14.37;;;;;;;;;;5074185;28;20550;-83
2023/10/26 05:12:53;;;;;;;22.13;14.70;;;;;;;;;;5074142;28;20812;-83
2023/10/26 05:15:19;;;;;;;20.13;13.80;;;;;;;;;;5072761;28;20421;-83
2023/10/26 05:17:45;;;;;;;20.03;15.73;;;;;;;;;;5073580;28;20171;-82
2023/10/26 05:20:11;;;;;;;20.87;16.30;;;;;;;;;;5073783;28;20475;-83
2023/10/26 05:22:37;;;;;;;21.97;15.57;;;;;;;;;;5073807;28;20412;-81
2023/10/26 05:25:10;;;;;;;21.60;15.40;;;;;;;;;;5073827;28;20470;-80
2023/10/26 05:27:36;;;;;;;22.40;16.17;;;;;;;;;;5072367;28;20444;-80
2023/10/26 05:30:02;;;;;;;23.50;17.47;;;;;;;;;;5073741;28;20508;-80
2023/10/26 05:32:28;;;;;;;19.83;13.50;;;;;;;;;;5072082;28;20961;-80
2023/10/26 05:34:54;;;;;;;24.20;16.20;;;;;;;;;;5072620;28;20429;-83
2023/10/26 05:37:20;;;;;;;20.67;15.13;;;;;;;;;;5073720;28;20446;-83
2023/10/26 05:39:46;;;;;;;20.50;15.73;;;;;;;;;;5073583;28;20473;-83
2023/10/26 05:42:12;;;;;;;24.47;17.10;;;;;;;;;;5073615;28;20416;-84
2023/10/26 05:44:38;;;;;;;21.23;16.13;;;;;;;;;;5073635;28;20770;-82
2023/10/26 05:47:04;;;;;;;20.77;14.77;;;;;;;;;;5073237;28;20173;-82
2023/10/26 05:49:30;;;;;;;22.47;15.57;;;;;;;;;;5073501;28;20499;-83
2023/10/26 05:52:01;;;;;;;23.97;15.00;;;;;;;;;;5073578;28;20436;-81
2023/10/26 05:54:27;;;;;;;20.83;15.60;;;;;;;;;;5073890;28;20462;-82
2023/10/26 05:56:53;;;;;;;20.27;14.90;;;;;;;;;;5072332;28;20404;-81
2023/10/26 05:59:19;;;;;;;22.30;15.47;;;;;;;;;;5072050;28;20445;-84
2023/10/26 06:01:45;;;;;;;23.77;16.67;;;;;;;;;;5071503;28;21311;-83
2023/10/26 06:04:11;;;;;;;21.60;15.27;;;;;;;;;;5073208;28;20876;-83
2023/10/26 06:06:37;;;;;;;23.10;16.30;;;;;;;;;;5073265;28;20185;-82
2023/10/26 06:09:03;;;;;;;21.40;16.00;;;;;;;;;;5073123;28;20450;-83
2023/10/26 06:11:29;;;;;;;20.97;16.80;;;;;;;;;;5073169;28;20417;-82
2023/10/26 06:13:55;;;;;;;25.43;17.50;;;;;;;;;;5073192;28;20403;-83
2023/10/26 06:16:21;;;;;;;23.73;15.10;;;;;;;;;;5072736;28;20551;-83
2023/10/26 06:18:47;;;;;;;22.90;16.60;;;;;;;;;;5073132;28;20436;-83
2023/10/26 06:21:13;;;;;;;24.53;15.90;;;;;;;;;;5072950;28;20640;-83
2023/10/26 06:23:39;;;;;;;26.50;16.50;;;;;;;;;;5072486;28;20192;-83
2023/10/26 06:26:05;;;;;;;25.63;17.53;;;;;;;;;;5072709;28;20512;-83
2023/10/26 06:28:31;;;;;;;22.90;16.33;;;;;;;;;;5072806;28;20482;-82
2023/10/26 06:31:07;;;;;;;25.50;17.43;;;;;;;;;;5072541;28;20427;-83
2023/10/26 06:33:33;;;;;;;22.13;15.60;;;;;;;;;;5072974;28;20466;-82
2023/10/26 06:35:59;;;;;;;25.97;16.90;;;;;;;;;;5072885;28;20411;-82
2023/10/26 06:38:25;;;;;;;23.20;15.50;;;;;;;;;;5088438;28;20434;-82
2023/10/26 06:40:51;;;;;;;24.90;16.40;;;;;;;;;;5072790;28;20565;-82
2023/10/26 06:43:17;;;;;;;22.40;16.07;;;;;;;;;;5074890;28;20493;-82
2023/10/26 06:45:43;;;;;;;24.13;16.57;;;;;;;;;;5077033;28;20496;-81
2023/10/26 06:48:09;;;;;;;24.67;15.27;;;;;;;;;;5076562;28;20408;-82
2023/10/26 06:50:35;;;;;;;24.67;15.40;;;;;;;;;;5076892;28;20193;-79
2023/10/26 06:53:01;;;;;;;24.67;15.77;;;;;;;;;;5076879;28;20898;-82
2023/10/26 06:55:29;;;;;;;26.30;15.63;;;;;;;;;;5076762;28;20178;-86
2023/10/26 06:57:55;;;;;;;22.57;15.97;;;;;;;;;;5076874;28;20488;-84
2023/10/26 07:00:21;;;;;;;31.10;16.60;;;;;;;;;;5076568;28;20522;-85
2023/10/26 07:02:47;;;;;;;26.07;15.47;;;;;;;;;;5091893;28;20312;-85
2023/10/26 07:05:13;;;;;;;23.63;15.70;;;;;;;;;;5076647;28;20455;-85
2023/10/26 07:07:39;;;;;;;28.90;15.97;;;;;;;;;;5092200;28;20421;-85
2023/10/26 07:10:05;;;;;;;21.30;15.07;;;;;;;;;;5092191;28;20420;-85
2023/10/26 07:12:31;;;;;;;24.00;14.40;;;;;;;;;;5091947;28;20183;-84
2023/10/26 07:14:59;;;;;;;18.43;13.20;;;;;;;;;;5076393;28;20516;-84
2023/10/26 07:17:25;;;;;;;22.40;15.20;;;;;;;;;;5075784;28;20175;-84
2023/10/26 07:19:51;;;;;;;21.00;14.10;;;;;;;;;;5076189;28;20843;-84
2023/10/26 07:22:17;;;;;;;25.23;15.07;;;;;;;;;;5076353;28;20406;-86
2023/10/26 07:24:43;;;;;;;19.13;13.93;;;;;;;;;;5076297;28;20425;-84
2023/10/26 07:27:09;;;;;;;23.80;15.33;;;;;;;;;;5076178;28;20441;-84
2023/10/26 07:29:35;;;;;;;18.83;13.17;;;;;;;;;;5084217;28;20464;-84
2023/10/26 07:32:01;;;;;;;22.60;12.67;;;;;;;;;;5078482;28;20419;-84
2023/10/26 07:34:26;;;;;;;21.70;13.67;;;;;;;;;;5065154;28;20479;-84
2023/10/26 07:36:52;;;;;;;18.33;12.73;;;;;;;;;;5067476;28;20176;-83
2023/10/26 07:39:18;;;;;;;20.03;13.10;;;;;;;;;;5064531;28;20425;-83
2023/10/26 07:41:44;;;;;;;21.00;12.70;;;;;;;;;;5066403;28;20289;-83
2023/10/26 07:44:10;;;;;;;23.73;14.30;;;;;;;;;;5065130;28;20769;-83
2023/10/26 07:46:36;;;;;;;20.13;12.90;;;;;;;;;;5064511;28;20422;-83
2023/10/26 07:49:03;;;;;;;20.40;13.90;;;;;;;;;;5066195;28;20543;-82
2023/10/26 07:51:29;;;;;;;20.53;12.60;;;;;;;;;;5064677;28;20422;-83
2023/10/26 07:53:54;;;;;;;21.70;13.63;;;;;;;;;;5065979;28;20409;-83
2023/10/26 07:56:20;;;;;;;21.20;14.20;;;;;;;;;;5069643;28;20513;-83
2023/10/26 07:58:46;;;;;;;21.37;13.97;;;;;;;;;;5055833;28;20855;-81
2023/10/26 08:01:12;;;;;;;21.87;14.47;;;;;;;;;;5055147;28;20215;-81
2023/10/26 08:03:38;;;;;;;18.87;12.90;;;;;;;;;;5055511;28;20454;-81
2023/10/26 08:06:06;;;;;;;23.23;13.60;;;;;;;;;;5055492;28;20422;-82
2023/10/26 08:08:32;;;;;;;18.70;13.60;;;;;;;;;;5055053;28;20409;-84
2023/10/26 08:11:07;;;;;;;18.97;13.10;;;;;;;;;;5054283;28;20557;-86
2023/10/26 08:13:33;;;;;;;18.97;13.40;;;;;;;;;;5055534;28;20411;-85
2023/10/26 08:16:00;;;;;;;21.07;13.00;;;;;;;;;;5053793;28;20420;-90
2023/10/26 08:18:26;;;;;;;19.40;12.93;;;;;;;;;;5054560;28;20427;-83
2023/10/26 08:20:52;;;;;;;19.83;11.83;;;;;;;;;;5052849;28;20475;-86
2023/10/26 08:23:19;;;;;;;18.30;12.67;;;;;;;;;;5053128;28;20533;-83
2023/10/26 08:25:45;;;;;;;18.57;12.33;;;;;;;;;;5063631;28;20502;-83
2023/10/26 08:28:10;;;;;;;16.00;10.97;;;;;;;;;;5072973;28;20550;-83
2023/10/26 08:30:37;;;;;;;18.77;11.47;;;;;;;;;;5063147;28;20182;-83
2023/10/26 08:33:04;;;;;;;16.20;11.20;;;;;;;;;;5063471;28;20414;-88
2023/10/26 08:35:30;;;;;;;17.33;11.30;;;;;;;;;;5066788;28;20423;-83
2023/10/26 08:37:56;;;;;;;15.70;9.87;;;;;;;;;;5064693;28;20440;-83
2023/10/26 08:40:22;;;;;;;13.93;10.70;;;;;;;;;;5064665;28;20467;-84
2023/10/26 08:42:48;;;;;;;16.33;11.27;;;;;;;;;;5064008;28;20411;-84
2023/10/26 08:45:21;;;;;;;15.20;9.83;;;;;;;;;;5064432;28;20786;-83
2023/10/26 08:47:49;;;;;;;14.93;9.30;;;;;;;;;;5065850;28;20422;-84
2023/10/26 08:50:15;;;;;;;12.37;8.13;;;;;;;;;;5073921;28;20436;-82
2023/10/26 08:52:41;;;;;;;14.23;10.00;;;;;;;;;;5073694;28;20576;-83
2023/10/26 08:55:08;;;;;;;11.07;8.70;;;;;;;;;;5073645;28;20407;-82
2023/10/26 08:57:34;;;;;;;11.83;8.20;;;;;;;;;;5074335;28;20928;-84
2023/10/26 09:00:05;;;;;;;10.63;8.20;;;;;;;;;;5073733;28;20617;-83
2023/10/26 09:02:31;;;;;;;11.20;7.67;;;;;;;;;;5073988;28;20416;-83
2023/10/26 09:05:04;;;;;;;11.43;8.60;;;;;;;;;;5074060;28;20774;-83
2023/10/26 09:07:30;;;;;;;9.50;6.80;;;;;;;;;;5073903;28;20175;-83
2023/10/26 09:09:56;;;;;;;11.17;8.30;;;;;;;;;;5073748;28;20512;-83
2023/10/26 09:12:22;;;;;;;10.20;6.33;;;;;;;;;;5073517;28;20437;-83
2023/10/26 09:14:58;;;;;;;10.20;8.10;;;;;;;;;;5074018;28;20433;-83
2023/10/26 09:17:28;;;;;;;10.30;7.53;;;;;;;;;;5089460;28;20427;-84
2023/10/26 09:19:54;;;;;;;10.10;7.13;;;;;;;;;;5089558;28;20565;-83
2023/10/26 09:22:36;;;;;;;9.53;7.00;;;;;;;;;;5073921;28;20450;-84
2023/10/26 09:25:11;;;;;;;9.00;6.83;;;;;;;;;;5074009;28;20747;-84
2023/10/26 09:27:38;;;;;;;9.73;6.37;;;;;;;;;;5074294;28;20415;-83
2023/10/26 09:30:05;;;;;;;10.00;6.43;;;;;;;;;;5073879;28;20420;-84
2023/10/26 09:32:32;;;;;;;9.60;6.03;;;;;;;;;;5089129;28;20481;-84
2023/10/26 09:34:58;;;;;;;7.93;5.87;;;;;;;;;;5075031;28;20413;-83
2023/10/26 09:37:24;;;;;;;7.33;5.30;;;;;;;;;;5073823;28;20853;-85
2023/10/26 09:39:50;;;;;;;9.13;6.87;;;;;;;;;;5073677;28;20820;-87
2023/10/26 09:42:16;;;;;;;9.07;6.50;;;;;;;;;;5073922;28;20419;-83
2023/10/26 09:44:42;;;;;;;11.70;6.17;;;;;;;;;;5071780;28;20986;-84
2023/10/26 09:47:08;;;;;;;12.60;6.97;;;;;;;;;;5064898;28;20523;-84
2023/10/26 09:49:34;;;;;;;7.50;5.40;;;;;;;;;;5073204;28;20184;-85
2023/10/26 09:52:00;;;;;;;8.80;5.20;;;;;;;;;;5072991;28;20413;-83
2023/10/26 09:54:33;;;;;;;7.53;5.60;;;;;;;;;;5072995;28;20465;-83
2023/10/26 09:57:05;;;;;;;6.50;4.97;;;;;;;;;;5072989;28;20431;-85
2023/10/26 09:59:31;;;;;;;6.40;4.67;;;;;;;;;;5072834;28;20907;-91
2023/10/26 10:01:57;;;;;;;9.93;4.97;;;;;;;;;;5087918;28;20424;-84
2023/10/26 10:04:39;;;;;;;8.13;4.60;;;;;;;;;;5073501;28;20404;-84
2023/10/26 10:07:05;;;;;;;7.30;4.73;;;;;;;;;;5073398;28;20399;-84
2023/10/26 10:09:31;;;;;;;8.53;5.83;;;;;;;;;;5072906;28;20422;-87
2023/10/26 10:12:14;;;;;;;5.83;3.63;;;;;;;;;;5072721;28;20539;-84
2023/10/26 10:14:51;;;;;;;6.47;3.67;;;;;;;;;;5073071;28;20487;-89
2023/10/26 10:17:18;;;;;;;6.00;3.63;;;;;;;;;;5071711;28;20412;-89
2023/10/26 10:19:46;;;;;;;6.67;4.17;;;;;;;;;;5066915;28;20437;-84
2023/10/26 10:22:30;;;;;;;4.40;3.17;;;;;;;;;;5057176;28;20790;-82
2023/10/26 10:24:56;;;;;;;7.20;3.20;;;;;;;;;;5060591;28;20416;-83
2023/10/26 10:27:22;;;;;;;5.13;3.17;;;;;;;;;;5052683;28;20468;-83
2023/10/26 10:29:48;;;;;;;4.10;2.40;;;;;;;;;;5067940;28;20701;-82
2023/10/26 10:32:34;;;;;;;3.63;2.13;;;;;;;;;;5072328;28;20403;-85
2023/10/26 10:35:03;;;;;;;3.23;1.83;;;;;;;;;;5072462;28;20417;-82
2023/10/26 10:37:29;;;;;;;4.37;2.67;;;;;;;;;;5070353;28;20435;-82
2023/10/26 10:40:11;;;;;;;4.53;2.57;;;;;;;;;;5051951;28;20539;-83
2023/10/26 10:42:39;;;;;;;4.77;2.97;;;;;;;;;;5049237;28;20185;-83
2023/10/26 10:45:05;;;;;;;6.90;3.10;;;;;;;;;;5056040;28;20457;-81
2023/10/26 10:47:31;;;;;;;5.10;2.60;;;;;;;;;;5067473;28;20420;-81
2023/10/26 10:50:16;;;;;;;4.73;2.20;;;;;;;;;;5072373;28;20415;-90
2023/10/26 10:52:42;;;;;;;2.97;2.13;;;;;;;;;;5071385;28;20434;-86
2023/10/26 10:55:08;;;;;;;3.40;1.70;;;;;;;;;;5071416;28;20913;-84
2023/10/26 10:57:34;;;;;;;2.53;1.53;;;;;;;;;;5071673;28;20440;-81
2023/10/26 11:00:00;;;;;;;1.43;0.93;;;;;;;;;;5071918;28;20492;-83
2023/10/26 11:02:26;;;;;;;3.47;1.43;;;;;;;;;;5071245;28;20625;-80
2023/10/26 11:04:59;;;;;;;5.13;2.00;;;;;;;;;;5065489;28;21030;-80
2023/10/26 11:07:26;;;;;;;3.00;1.43;;;;;;;;;;5071422;28;20420;-82
2023/10/26 11:09:56;;;;;;;4.20;1.17;;;;;;;;;;5059501;28;20430;-80
2023/10/26 11:12:22;;;;;;;2.67;1.70;;;;;;;;;;5052430;28;20415;-80
2023/10/26 11:14:52;;;;;;;2.67;1.20;;;;;;;;;;5052541;28;20465;-81
2023/10/26 11:17:19;;;;;;;3.17;2.37;;;;;;;;;;5049693;28;20419;-82
2023/10/26 11:19:45;;;;;;;3.27;2.00;;;;;;;;;;5052333;28;20410;-83
2023/10/26 11:22:12;;;;;;;1.73;1.20;;;;;;;;;;5052363;28;20432;-81
2023/10/26 11:24:38;;;;;;;2.57;1.80;;;;;;;;;;5052507;28;20628;-82
2023/10/26 11:27:14;;;;;;;2.40;1.17;;;;;;;;;;5050675;28;20409;-82
2023/10/26 11:29:41;;;;;;;3.00;0.87;;;;;;;;;;5053957;28;20457;-84
2023/10/26 11:32:20;;;;;;;3.40;1.07;;;;;;;;;;5055345;28;20779;-84
2023/10/26 11:35:02;;;;;;;4.10;1.17;;;;;;;;;;5055752;28;20398;-82
2023/10/26 11:37:28;;;;;;;3.80;0.90;;;;;;;;;;5055564;28;20410;-82
2023/10/26 11:39:54;;;;;;;2.13;1.03;;;;;;;;;;5055643;28;20464;-82
2023/10/26 11:42:20;;;;;;;1.80;1.10;;;;;;;;;;5055651;28;20170;-84
2023/10/26 11:44:56;;;;;;;2.00;0.80;;;;;;;;;;5055604;28;20409;-84
2023/10/26 11:47:22;;;;;;;3.10;1.30;;;;;;;;;;5060446;28;20210;-86
2023/10/26 11:49:48;;;;;;;2.83;1.00;;;;;;;;;;5066144;28;20418;-83
2023/10/26 11:52:14;;;;;;;4.70;0.80;;;;;;;;;;5058723;28;20187;-84
2023/10/26 11:54:51;;;;;;;1.87;0.60;;;;;;;;;;5063428;28;20421;-83
2023/10/26 11:57:17;;;;;;;1.90;0.57;;;;;;;;;;5090158;28;20434;-86
2023/10/26 11:59:43;;;;;;;3.70;0.60;;;;;;;;;;5068236;28;20433;-87
2023/10/26 12:02:09;;;;;;;2.00;0.97;;;;;;;;;;5055208;28;20440;-82
2023/10/26 12:04:34;;;;;;;4.40;1.17;;;;;;;;;;5069818;28;20847;-82
2023/10/26 12:07:00;;;;;;;4.73;1.07;;;;;;;;;;5074727;28;20417;-82
2023/10/26 12:09:26;;;;;;;2.37;0.80;;;;;;;;;;5090626;28;20197;-84
2023/10/26 12:11:52;;;;;;;1.80;1.23;;;;;;;;;;5074430;28;20930;-82
2023/10/26 12:14:18;;;;;;;3.00;1.60;;;;;;;;;;5074807;28;20419;-83
2023/10/26 12:16:44;;;;;;;2.50;0.87;;;;;;;;;;5074461;28;20176;-84
2023/10/26 12:19:10;;;;;;;2.03;0.70;;;;;;;;;;5072858;28;20751;-82
2023/10/26 12:21:36;;;;;;;1.40;0.67;;;;;;;;;;5068007;28;20477;-82
2023/10/26 12:24:05;;;;;;;1.80;0.43;;;;;;;;;;5058988;28;20415;-84
2023/10/26 12:26:31;;;;;;;1.00;0.30;;;;;;;;;;5053578;28;20647;-83
2023/10/26 12:28:57;;;;;;;3.37;2.17;;;;;;;;;;5054471;28;20486;-82
2023/10/26 12:31:23;;;;;;;1.57;0.83;;;;;;;;;;5070878;28;20931;-83
2023/10/26 12:33:49;;;;;;;1.17;0.63;;;;;;;;;;5073801;28;20170;-83
2023/10/26 12:36:16;;;;;;;1.13;0.53;;;;;;;;;;5073943;28;20762;-85
2023/10/26 12:38:42;;;;;;;1.57;0.60;;;;;;;;;;5074260;28;20490;-82
2023/10/26 12:41:08;;;;;;;1.90;0.47;;;;;;;;;;5068653;28;20479;-83
2023/10/26 12:43:33;;;;;;;2.40;1.10;;;;;;;;;;5071062;28;20425;-83
2023/10/26 12:45:59;;;;;;;1.60;0.80;;;;;;;;;;5072934;28;20454;-83
2023/10/26 12:48:28;;;;;;;3.50;1.20;;;;;;;;;;5072924;28;20525;-83
2023/10/26 12:50:54;;;;;;;2.20;0.83;;;;;;;;;;5074166;28;20843;-83
2023/10/26 12:53:20;;;;;;;1.23;0.50;;;;;;;;;;5080908;28;20461;-82
2023/10/26 12:55:46;;;;;;;2.40;1.00;;;;;;;;;;5073435;28;20225;-82
2023/10/26 12:58:12;;;;;;;1.90;0.73;;;;;;;;;;5074192;28;20398;-82
2023/10/26 13:00:38;;;;;;;2.50;1.10;;;;;;;;;;5070258;28;20481;-84
2023/10/26 13:03:04;;;;;;;1.80;1.17;;;;;;;;;;5071115;28;20448;-83
2023/10/26 13:05:30;;;;;;;2.97;1.43;;;;;;;;;;5053797;28;20404;-84
2023/10/26 13:07:56;;;;;;;2.80;1.57;;;;;;;;;;5053420;28;20767;-79
2023/10/26 13:10:22;;;;;;;2.53;1.30;;;;;;;;;;5066486;28;20784;-80
2023/10/26 13:12:48;;;;;;;1.27;0.50;;;;;;;;;;5073206;28;20431;-81
2023/10/26 13:15:14;;;;;;;2.47;1.13;;;;;;;;;;5073263;28;20423;-81
2023/10/26 13:17:40;;;;;;;1.53;0.57;;;;;;;;;;5073595;28;20427;-81
2023/10/26 13:20:06;;;;;;;1.70;1.17;;;;;;;;;;5072870;28;20453;-85
2023/10/26 13:22:32;;;;;;;2.50;1.00;;;;;;;;;;5072535;28;20415;-82
2023/10/26 13:24:58;;;;;;;2.20;0.77;;;;;;;;;;5072379;28;20923;-81
2023/10/26 13:27:25;;;;;;;3.67;0.97;;;;;;;;;;5072981;28;20474;-81
2023/10/26 13:29:51;;;;;;;2.10;1.23;;;;;;;;;;5072585;28;20957;-83
2023/10/26 13:32:17;;;;;;;3.30;1.07;;;;;;;;;;5072879;28;20448;-83
2023/10/26 13:34:43;;;;;;;4.00;1.10;;;;;;;;;;5071464;28;20419;-82
2023/10/26 13:37:09;;;;;;;2.90;1.40;;;;;;;;;;5073206;28;20246;-82
2023/10/26 13:39:35;;;;;;;3.23;1.47;;;;;;;;;;5073501;28;20412;-82
2023/10/26 13:42:01;;;;;;;2.70;0.70;;;;;;;;;;5073270;28;20913;-82
2023/10/26 13:44:27;;;;;;;2.60;0.93;;;;;;;;;;5072860;28;20487;-82
2023/10/26 13:46:53;;;;;;;3.17;1.43;;;;;;;;;;5073419;28;20173;-81
2023/10/26 13:49:19;;;;;;;2.63;1.00;;;;;;;;;;5072158;28;20447;-82
2023/10/26 13:51:45;;;;;;;2.20;1.43;;;;;;;;;;5072460;28;20260;-83
2023/10/26 13:54:11;;;;;;;1.70;0.90;;;;;;;;;;5073406;28;20431;-84
2023/10/26 13:56:36;;;;;;;3.90;1.30;;;;;;;;;;5072154;28;20662;-82
2023/10/26 13:59:03;;;;;;;4.70;1.30;;;;;;;;;;5073397;28;20415;-82
2023/10/26 14:01:29;;;;;;;2.47;1.00;;;;;;;;;;5072804;28;20469;-83
2023/10/26 14:03:55;;;;;;;1.77;0.53;;;;;;;;;;5073333;28;20415;-85
2023/10/26 14:06:24;;;;;;;2.60;0.90;;;;;;;;;;5071952;28;20423;-85
2023/10/26 14:08:50;;;;;;;1.83;0.50;;;;;;;;;;5070896;28;20209;-84
2023/10/26 14:11:16;;;;;;;2.40;0.87;;;;;;;;;;5071539;28;20419;-84
2023/10/26 14:13:42;;;;;;;2.60;0.70;;;;;;;;;;5064965;28;20437;-83
2023/10/26 14:16:11;;;;;;;1.40;0.70;;;;;;;;;;5063771;28;20529;-84
2023/10/26 14:18:37;;;;;;;2.63;0.67;;;;;;;;;;5057793;28;20908;-85
2023/10/26 14:21:03;;;;;;;1.20;0.47;;;;;;;;;;5052137;28;20482;-83
2023/10/26 14:23:29;;;;;;;1.70;0.60;;;;;;;;;;5051955;28;20405;-84
2023/10/26 14:25:55;;;;;;;1.10;0.37;;;;;;;;;;5055701;28;20441;-84